Terminal Aerodrome Forecast
Issued by NWS

Home | Current Version | Previous Version | Text Only | Print | Product List | Glossary Off
Versions: 1 2 3 4 5 6 7 8 9 10 11 12 13 14 15 16 17 18 19 20 21

856
FTUS43 KBIS 110735 AAA
TAFDIK
TAF AMD
KDIK 110735Z 1108/1206 32024G35KT P6SM BKN035
      TEMPO 1109/1112 32030G43KT BKN025
     FM111200 31023G34KT P6SM OVC015
     FM111500 31020G29KT P6SM OVC010
     FM120300 30009KT P6SM BKN020=

USA.gov is the U.S. government's official web portal to all federal, state and local government web resources and services.